CheckWX is a tool to help pilots better visualize weather data.  It is not intended as a substitute for an official pre-flight weather briefing.

04:34:31 UTC

KPOC METAR
Brackett Field Airport
La Verne, California, USA
Current

48 mins ago

KPOC 240347Z 26008KT 10 CLR 28/10 A3000 RMK LAST
Observed
Jul-24 @ 03:47 UTC
Wind
  • 260° at 8 KTS
Visibility
Cloud Levels
  • Clear skies
Temperature
28°C / 82°F
Dewpoint
10°C / 50°F
Humidity
32%
Altimeter
30" Hg
Pressure
1015.92 hPa
Previous

3 hours ago

KPOC 240147Z 25012KT 10 CLR 32/12 A2996
Observed
Jul-24 @ 01:47 UTC
Wind
  • 250° at 12 KTS
Visibility
Cloud Levels
  • Clear skies
Temperature
32°C / 90°F
Dewpoint
12°C / 54°F
Humidity
29%
Altimeter
29.96" Hg
Pressure
1014.52 hPa
Previous

4 hours ago

KPOC 240047Z 25010KT 10 CLR 35/11 A2993
Observed
Jul-24 @ 00:47 UTC
Wind
  • 250° at 10 KTS
Visibility
Cloud Levels
  • Clear skies
Temperature
35°C / 95°F
Dewpoint
11°C / 52°F
Humidity
23%
Altimeter
29.93" Hg
Pressure
1013.52 hPa